createdAt,value
2018-11-21T00:00:33.432Z,54.30
2018-11-21T00:01:06.917Z,54.20
2018-11-21T00:01:40.369Z,54.30
2018-11-21T00:02:14.413Z,54.30
2018-11-21T00:02:49.157Z,54.30
2018-11-21T00:03:22.967Z,54.40
2018-11-21T00:03:57.234Z,54.50
2018-11-21T00:04:30.786Z,54.40
2018-11-21T00:05:04.635Z,54.50
2018-11-21T00:05:38.938Z,54.50
2018-11-21T00:06:12.420Z,54.40
2018-11-21T00:06:47.108Z,54.50
2018-11-21T00:07:21.891Z,54.50
2018-11-21T00:07:56.180Z,54.40
2018-11-21T00:08:30.041Z,54.50
2018-11-21T00:09:04.068Z,54.40
2018-11-21T00:09:37.685Z,54.40
2018-11-21T00:10:12.605Z,54.40
2018-11-21T00:10:46.443Z,54.50
2018-11-21T00:11:20.223Z,54.40
2018-11-21T00:11:53.762Z,54.60
2018-11-21T00:12:28.116Z,54.60
2018-11-21T00:13:02.317Z,54.60
2018-11-21T00:13:36.326Z,54.60
2018-11-21T00:14:09.966Z,54.50
2018-11-21T00:14:44.293Z,54.60
2018-11-21T00:15:18.614Z,54.50
2018-11-21T00:15:52.429Z,54.50
2018-11-21T00:16:26.896Z,54.60
2018-11-21T00:17:00.405Z,54.60
2018-11-21T00:17:33.862Z,54.50
2018-11-21T00:18:08.285Z,54.50
2018-11-21T00:18:42.147Z,54.50
2018-11-21T00:19:16.275Z,54.50
2018-11-21T00:19:52.234Z,54.60
2018-11-21T00:20:25.953Z,54.70
2018-11-21T00:21:02.074Z,54.80
2018-11-21T00:21:35.970Z,54.60
2018-11-21T00:22:10.058Z,54.60
2018-11-21T00:22:43.525Z,54.50
2018-11-21T00:23:17.729Z,54.60
2018-11-21T00:23:51.577Z,54.60
2018-11-21T00:24:25.875Z,54.50
2018-11-21T00:25:01.416Z,54.60
2018-11-21T00:25:35.605Z,54.50
2018-11-21T00:26:09.473Z,54.50
2018-11-21T00:26:42.978Z,54.60
2018-11-21T00:27:16.470Z,54.70
2018-11-21T00:27:49.925Z,54.60
2018-11-21T00:28:24.029Z,54.60
2018-11-21T00:28:57.700Z,54.40
2018-11-21T00:29:31.203Z,54.50
2018-11-21T00:30:07.557Z,54.60
2018-11-21T00:30:42.984Z,54.50
2018-11-21T00:31:16.799Z,54.50
2018-11-21T00:31:50.709Z,54.60
2018-11-21T00:32:25.770Z,54.50
2018-11-21T00:32:59.541Z,54.60
2018-11-21T00:33:34.197Z,54.70
2018-11-21T00:34:07.631Z,54.70
2018-11-21T00:34:41.098Z,54.50
2018-11-21T00:35:14.894Z,54.60
2018-11-21T00:35:48.810Z,54.40
2018-11-21T00:36:22.611Z,54.40
2018-11-21T00:36:56.433Z,54.60
2018-11-21T00:37:30.028Z,54.50
2018-11-21T00:38:03.498Z,54.50
2018-11-21T00:38:38.977Z,54.40
2018-11-21T00:39:12.929Z,54.40
2018-11-21T00:39:46.410Z,54.50
2018-11-21T00:40:20.141Z,54.30
2018-11-21T00:40:53.621Z,54.30
2018-11-21T00:41:27.116Z,54.30
2018-11-21T00:42:01.477Z,54.20
2018-11-21T00:42:35.945Z,54.20
2018-11-21T00:43:10.272Z,54.30
2018-11-21T00:43:43.951Z,54.40
2018-11-21T00:44:17.760Z,54.40
2018-11-21T00:44:51.525Z,54.40
2018-11-21T00:45:24.941Z,54.40
2018-11-21T00:45:58.507Z,54.40
2018-11-21T00:46:32.298Z,54.30
2018-11-21T00:47:06.100Z,54.40
2018-11-21T00:47:39.799Z,54.40
2018-11-21T00:48:13.565Z,54.40
2018-11-21T00:48:47.424Z,54.40
2018-11-21T00:49:21.782Z,54.60
2018-11-21T00:49:57.596Z,54.60
2018-11-21T00:50:31.960Z,55.20
2018-11-21T00:51:05.483Z,54.70
2018-11-21T00:51:39.298Z,54.60
2018-11-21T00:52:14.083Z,54.70
2018-11-21T00:52:49.489Z,54.80
2018-11-21T00:53:23.882Z,54.70
2018-11-21T00:53:57.328Z,54.90
2018-11-21T00:54:30.762Z,54.80
2018-11-21T00:55:04.310Z,54.80
2018-11-21T00:55:37.737Z,54.90
2018-11-21T00:56:11.218Z,54.90
2018-11-21T00:56:45.949Z,54.90
2018-11-21T00:57:20.621Z,55.10
2018-11-21T00:57:54.518Z,54.90
2018-11-21T00:58:28.791Z,55.20
2018-11-21T00:59:02.975Z,55.20
2018-11-21T00:59:37.472Z,55.10
2018-11-21T01:00:12.035Z,55.10
2018-11-21T01:00:45.806Z,55.20
2018-11-21T01:01:20.017Z,55.10
2018-11-21T01:01:53.483Z,55.20
2018-11-21T01:02:27.815Z,55.10
2018-11-21T01:03:01.762Z,55.20
2018-11-21T01:03:35.639Z,55.30
2018-11-21T01:04:09.080Z,55.10
2018-11-21T01:04:43.149Z,55.10
2018-11-21T01:05:17.059Z,55.20
2018-11-21T01:05:50.701Z,55.30
2018-11-21T01:06:24.136Z,55.80
2018-11-21T01:06:57.636Z,55.10
2018-11-21T01:07:31.500Z,55.10
2018-11-21T01:08:06.722Z,55.10
2018-11-21T01:08:40.492Z,55.10
2018-11-21T01:09:14.869Z,55.10
2018-11-21T01:09:48.372Z,55.10
2018-11-21T01:10:22.155Z,55.10
2018-11-21T01:10:55.994Z,55.30
2018-11-21T01:11:29.451Z,55.10
2018-11-21T01:12:04.112Z,55.10
2018-11-21T01:12:37.552Z,55.20
2018-11-21T01:13:11.162Z,55.20
2018-11-21T01:13:44.941Z,55.10
2018-11-21T01:14:18.798Z,55.30
2018-11-21T01:14:52.309Z,55.20
2018-11-21T01:15:27.194Z,55.20
2018-11-21T01:16:00.672Z,55.20
2018-11-21T01:16:34.229Z,55.30
2018-11-21T01:17:08.095Z,55.20
2018-11-21T01:17:41.954Z,55.10
2018-11-21T01:18:15.414Z,55.10
2018-11-21T01:18:48.873Z,54.90
2018-11-21T01:19:23.330Z,55.10
2018-11-21T01:19:57.230Z,55.10
2018-11-21T01:20:30.710Z,55.10
2018-11-21T01:21:04.689Z,55.00
2018-11-21T01:21:38.119Z,55.10
2018-11-21T01:22:12.423Z,55.10
2018-11-21T01:22:45.886Z,55.10
2018-11-21T01:23:20.620Z,55.10
2018-11-21T01:23:54.061Z,55.10
2018-11-21T01:24:28.994Z,55.00
2018-11-21T01:25:02.457Z,55.20
2018-11-21T01:25:35.994Z,55.10
2018-11-21T01:26:09.412Z,55.20
2018-11-21T01:26:43.612Z,55.10
2018-11-21T01:27:18.502Z,55.30
2018-11-21T01:27:52.212Z,55.20
2018-11-21T01:28:26.560Z,55.00
2018-11-21T01:29:00.059Z,55.10
2018-11-21T01:29:33.629Z,55.30
2018-11-21T01:30:08.042Z,55.20
2018-11-21T01:30:42.255Z,55.10
2018-11-21T01:31:16.027Z,55.20
2018-11-21T01:31:49.516Z,55.20
2018-11-21T01:32:23.027Z,55.20
2018-11-21T01:32:56.896Z,55.30
2018-11-21T01:33:31.130Z,55.20
2018-11-21T01:34:05.466Z,55.20
2018-11-21T01:34:39.065Z,55.10
2018-11-21T01:35:12.512Z,55.20
2018-11-21T01:35:46.365Z,55.20
2018-11-21T01:36:20.814Z,55.20
2018-11-21T01:36:55.431Z,55.20
2018-11-21T01:37:29.421Z,55.10
2018-11-21T01:38:02.859Z,55.20
2018-11-21T01:38:36.315Z,55.20
2018-11-21T01:39:11.555Z,55.30
2018-11-21T01:39:45.775Z,55.10
2018-11-21T01:40:20.698Z,55.30
2018-11-21T01:40:54.527Z,55.40
2018-11-21T01:41:28.721Z,55.50
2018-11-21T01:42:02.579Z,55.60
2018-11-21T01:42:36.392Z,55.50
2018-11-21T01:43:11.031Z,55.40
2018-11-21T01:43:45.025Z,55.50
2018-11-21T01:44:20.522Z,55.40
2018-11-21T01:44:54.076Z,55.40
2018-11-21T01:45:27.598Z,55.40
2018-11-21T01:46:01.596Z,55.50
2018-11-21T01:46:35.981Z,55.70
2018-11-21T01:47:10.200Z,55.70
2018-11-21T01:47:43.621Z,55.50
2018-11-21T01:48:17.479Z,55.60
2018-11-21T01:48:51.388Z,55.50
2018-11-21T01:49:25.324Z,55.50
2018-11-21T01:49:59.197Z,55.70
2018-11-21T01:50:32.640Z,55.60
2018-11-21T01:51:06.077Z,55.70
2018-11-21T01:51:41.733Z,55.70
2018-11-21T01:52:15.194Z,55.70
2018-11-21T01:52:49.494Z,55.90
2018-11-21T01:53:23.750Z,56.10
2018-11-21T01:53:57.466Z,56.00
2018-11-21T01:54:31.658Z,56.10
2018-11-21T01:55:05.722Z,56.00
2018-11-21T01:55:39.197Z,55.90
2018-11-21T01:56:12.678Z,55.90
2018-11-21T01:56:46.695Z,56.00
2018-11-21T01:57:20.125Z,56.00
2018-11-21T01:57:53.607Z,55.90
2018-11-21T01:58:28.345Z,56.00
2018-11-21T01:59:02.335Z,56.00
2018-11-21T01:59:36.177Z,55.90
2018-11-21T02:00:11.281Z,55.90
2018-11-21T02:00:45.567Z,56.00
2018-11-21T02:01:19.920Z,55.90
2018-11-21T02:01:54.590Z,56.10
2018-11-21T02:02:28.058Z,56.10
2018-11-21T02:03:01.544Z,56.00
2018-11-21T02:03:38.136Z,56.10
2018-11-21T02:04:12.800Z,56.00
2018-11-21T02:04:46.288Z,56.10
2018-11-21T02:05:20.050Z,56.20
2018-11-21T02:05:54.840Z,56.20
2018-11-21T02:06:28.682Z,56.20
2018-11-21T02:07:02.201Z,56.10
2018-11-21T02:07:35.703Z,56.20
2018-11-21T02:08:09.461Z,56.40
2018-11-21T02:08:43.482Z,56.30
2018-11-21T02:09:18.387Z,56.20
2018-11-21T02:09:52.202Z,56.40
2018-11-21T02:10:26.091Z,57.00
2018-11-21T02:10:59.745Z,56.50
2018-11-21T02:11:35.511Z,56.50
2018-11-21T02:12:09.714Z,56.50
2018-11-21T02:12:43.653Z,56.20
2018-11-21T02:13:18.712Z,56.40
2018-11-21T02:13:52.137Z,56.30
2018-11-21T02:14:26.463Z,56.40
2018-11-21T02:15:01.323Z,56.30
2018-11-21T02:15:34.826Z,56.20
2018-11-21T02:16:08.390Z,56.30
2018-11-21T02:16:42.269Z,56.50
2018-11-21T02:17:16.138Z,56.40
2018-11-21T02:17:50.269Z,56.50
2018-11-21T02:18:25.013Z,56.40
2018-11-21T02:18:58.458Z,56.40
2018-11-21T02:19:32.062Z,56.30
2018-11-21T02:20:07.855Z,57.10
2018-11-21T02:20:41.310Z,56.10
2018-11-21T02:21:15.116Z,56.20
2018-11-21T02:21:49.538Z,56.30
2018-11-21T02:22:23.501Z,56.20
2018-11-21T02:22:57.402Z,56.30
2018-11-21T02:23:31.167Z,56.40
2018-11-21T02:24:04.712Z,56.40
2018-11-21T02:24:38.507Z,56.40
2018-11-21T02:25:12.282Z,56.50
2018-11-21T02:25:46.079Z,56.40
2018-11-21T02:26:19.522Z,56.40
2018-11-21T02:26:53.009Z,56.40
2018-11-21T02:27:27.151Z,56.20
2018-11-21T02:28:01.501Z,56.30
2018-11-21T02:28:35.327Z,56.40
2018-11-21T02:29:08.783Z,56.30
2018-11-21T02:29:42.322Z,56.50
2018-11-21T02:30:16.209Z,56.30
2018-11-21T02:30:50.037Z,56.50
2018-11-21T02:31:24.823Z,56.50
2018-11-21T02:31:58.758Z,56.60
2018-11-21T02:32:32.537Z,56.60
2018-11-21T02:33:06.831Z,56.50
2018-11-21T02:33:40.592Z,56.50
2018-11-21T02:34:14.390Z,56.40
2018-11-21T02:34:48.615Z,56.40
2018-11-21T02:35:23.439Z,56.30
2018-11-21T02:35:57.264Z,56.40
2018-11-21T02:36:31.064Z,56.40
2018-11-21T02:37:04.801Z,56.20
2018-11-21T02:37:38.321Z,56.20
2018-11-21T02:38:12.712Z,56.40
2018-11-21T02:38:46.143Z,56.30
2018-11-21T02:39:20.198Z,56.30
2018-11-21T02:39:53.639Z,56.30
2018-11-21T02:40:27.169Z,56.30
2018-11-21T02:41:00.618Z,56.50
2018-11-21T02:41:34.912Z,56.50
2018-11-21T02:42:08.712Z,56.40
2018-11-21T02:42:42.182Z,56.50
2018-11-21T02:43:16.345Z,56.60
2018-11-21T02:43:50.182Z,56.60
2018-11-21T02:44:24.649Z,56.60
2018-11-21T02:44:58.488Z,56.70
2018-11-21T02:45:33.967Z,56.60
2018-11-21T02:46:07.807Z,56.70
2018-11-21T02:46:42.585Z,56.70
2018-11-21T02:47:16.043Z,56.50
2018-11-21T02:47:51.586Z,56.60
2018-11-21T02:48:25.191Z,56.80
2018-11-21T02:48:58.709Z,56.70
2018-11-21T02:49:32.272Z,56.70
2018-11-21T02:50:06.640Z,56.60
2018-11-21T02:50:40.453Z,56.70
2018-11-21T02:51:13.957Z,56.70
2018-11-21T02:51:48.214Z,56.70
2018-11-21T02:52:22.100Z,56.70
2018-11-21T02:52:55.543Z,56.80
2018-11-21T02:53:29.693Z,56.70
2018-11-21T02:54:03.534Z,56.80
2018-11-21T02:54:37.014Z,56.60
2018-11-21T02:55:11.156Z,56.60
2018-11-21T02:55:44.909Z,56.60
2018-11-21T02:56:18.410Z,56.60
2018-11-21T02:57:31.078Z,56.60
2018-11-21T02:58:04.585Z,56.90
2018-11-21T02:58:38.050Z,56.70
2018-11-21T02:59:12.456Z,56.80
2018-11-21T02:59:47.441Z,56.60
2018-11-21T03:00:23.033Z,56.70
2018-11-21T03:00:56.510Z,56.80
2018-11-21T03:01:31.303Z,57.60
2018-11-21T03:02:05.521Z,56.90
2018-11-21T03:02:39.533Z,56.90
2018-11-21T03:03:13.752Z,56.80
2018-11-21T03:03:47.733Z,57.00
2018-11-21T03:04:21.764Z,57.00
2018-11-21T03:04:55.785Z,56.80
2018-11-21T03:05:29.601Z,56.80
2018-11-21T03:06:03.516Z,56.90
2018-11-21T03:06:36.923Z,57.00
2018-11-21T03:07:11.054Z,56.80
2018-11-21T03:07:51.842Z,56.90
2018-11-21T03:08:26.211Z,56.80
2018-11-21T03:09:00.422Z,57.00
2018-11-21T03:09:34.075Z,56.90
2018-11-21T03:10:07.807Z,56.90
2018-11-21T03:10:41.635Z,56.80
2018-11-21T03:11:15.478Z,56.90
2018-11-21T03:11:49.040Z,57.00
2018-11-21T03:12:23.644Z,56.90
2018-11-21T03:12:57.441Z,56.90
2018-11-21T03:13:31.608Z,57.00
2018-11-21T03:14:05.496Z,56.90
2018-11-21T03:14:38.962Z,57.10
2018-11-21T03:15:12.750Z,57.00
2018-11-21T03:15:46.206Z,57.00
2018-11-21T03:16:19.686Z,56.90
2018-11-21T03:16:53.988Z,57.60
2018-11-21T03:17:27.914Z,56.90
2018-11-21T03:18:01.807Z,57.00
2018-11-21T03:18:35.353Z,57.00
2018-11-21T03:19:09.258Z,57.10
2018-11-21T03:19:43.443Z,57.00
2018-11-21T03:20:17.233Z,56.90
2018-11-21T03:20:51.848Z,56.90
2018-11-21T03:21:25.722Z,56.90
2018-11-21T03:21:59.904Z,56.70
2018-11-21T03:22:33.627Z,56.90
2018-11-21T03:23:07.806Z,56.90
2018-11-21T03:23:41.278Z,56.90
2018-11-21T03:24:15.188Z,57.10
2018-11-21T03:24:48.632Z,57.00
2018-11-21T03:25:22.335Z,57.00
2018-11-21T03:25:56.108Z,57.20
2018-11-21T03:26:30.288Z,57.10
2018-11-21T03:27:04.988Z,56.80
2018-11-21T03:27:39.407Z,56.90
2018-11-21T03:28:13.739Z,56.90
2018-11-21T03:28:47.372Z,56.90
2018-11-21T03:29:22.729Z,56.90
2018-11-21T03:29:56.648Z,56.90
2018-11-21T03:30:30.902Z,57.00
2018-11-21T03:31:04.338Z,57.00
2018-11-21T03:31:38.252Z,57.20
2018-11-21T03:32:12.112Z,57.00
2018-11-21T03:32:46.321Z,57.00
2018-11-21T03:33:20.255Z,56.80
2018-11-21T03:33:57.837Z,57.00
2018-11-21T03:34:28.843Z,57.10
2018-11-21T03:35:02.627Z,57.00
2018-11-21T03:35:37.139Z,57.00
2018-11-21T03:36:10.734Z,56.90
2018-11-21T03:36:48.072Z,57.00
2018-11-21T03:37:21.652Z,57.00
2018-11-21T03:37:55.965Z,56.90
2018-11-21T03:38:29.465Z,57.00
2018-11-21T03:39:06.907Z,57.10
2018-11-21T03:39:40.408Z,57.20
2018-11-21T03:40:14.284Z,57.30
2018-11-21T03:40:48.397Z,57.30
2018-11-21T03:41:22.159Z,57.20
2018-11-21T03:41:56.047Z,57.40
2018-11-21T03:42:29.492Z,57.20
2018-11-21T03:43:03.037Z,57.10
2018-11-21T03:43:37.526Z,57.30
2018-11-21T03:44:11.957Z,57.50
2018-11-21T03:44:46.315Z,57.50
2018-11-21T03:45:21.698Z,57.40
2018-11-21T03:45:55.837Z,57.50
2018-11-21T03:46:29.963Z,57.40
2018-11-21T03:47:03.911Z,58.20
2018-11-21T03:47:38.348Z,57.50
2018-11-21T03:48:13.103Z,57.40
2018-11-21T03:48:46.631Z,57.50
2018-11-21T03:49:21.179Z,57.40
2018-11-21T03:49:54.600Z,57.40
2018-11-21T03:50:28.485Z,57.50
2018-11-21T03:51:02.325Z,57.40
2018-11-21T03:51:36.490Z,57.30
2018-11-21T03:52:10.213Z,57.40
2018-11-21T03:52:43.654Z,57.30
2018-11-21T03:53:18.524Z,57.40
2018-11-21T03:53:52.783Z,58.10
2018-11-21T03:54:26.651Z,57.30
2018-11-21T03:55:00.508Z,57.30
2018-11-21T03:55:33.976Z,57.40
2018-11-21T03:56:07.794Z,57.40
2018-11-21T03:56:41.849Z,57.30
2018-11-21T03:57:15.372Z,57.30
2018-11-21T03:57:49.243Z,57.20
2018-11-21T03:58:23.600Z,57.30
2018-11-21T03:58:57.742Z,57.20
2018-11-21T03:59:31.220Z,57.30
2018-11-21T04:00:05.413Z,57.50
2018-11-21T04:00:39.259Z,57.70
2018-11-21T04:01:12.729Z,57.40
2018-11-21T04:01:46.166Z,57.40
2018-11-21T04:02:20.358Z,57.50
2018-11-21T04:02:54.321Z,57.60
2018-11-21T04:03:28.817Z,57.50
2018-11-21T04:04:03.545Z,57.50
2018-11-21T04:04:37.784Z,57.60
2018-11-21T04:05:11.742Z,57.70
2018-11-21T04:05:45.876Z,57.70
2018-11-21T04:06:19.791Z,57.70
2018-11-21T04:06:53.656Z,57.70
2018-11-21T04:07:27.825Z,58.20
2018-11-21T04:08:01.274Z,57.70
2018-11-21T04:08:42.224Z,57.60
2018-11-21T04:09:10.987Z,57.60
2018-11-21T04:09:44.825Z,57.50
2018-11-21T04:10:20.166Z,57.40
2018-11-21T04:10:53.661Z,57.50
2018-11-21T04:11:27.198Z,57.60
2018-11-21T04:12:01.266Z,57.80
2018-11-21T04:12:35.578Z,57.70
2018-11-21T04:13:09.342Z,57.90
2018-11-21T04:13:43.503Z,57.70
2018-11-21T04:14:16.999Z,57.90
2018-11-21T04:14:51.556Z,57.90
2018-11-21T04:15:25.332Z,58.00
2018-11-21T04:15:59.729Z,57.90
2018-11-21T04:16:33.661Z,57.70
2018-11-21T04:17:07.153Z,57.70
2018-11-21T04:17:41.114Z,57.70
2018-11-21T04:18:14.606Z,57.70
2018-11-21T04:18:52.572Z,57.90
2018-11-21T04:19:26.702Z,57.90
2018-11-21T04:20:00.542Z,57.90
2018-11-21T04:20:34.028Z,57.70
2018-11-21T04:21:07.969Z,57.70
2018-11-21T04:21:41.860Z,57.70
2018-11-21T04:22:15.388Z,57.60
2018-11-21T04:22:49.126Z,57.70
2018-11-21T04:23:22.611Z,57.70
2018-11-21T04:23:56.199Z,57.60
2018-11-21T04:24:29.638Z,57.60
2018-11-21T04:25:03.074Z,57.40
2018-11-21T04:25:36.541Z,57.40
2018-11-21T04:26:10.287Z,57.40
2018-11-21T04:26:43.734Z,57.40
2018-11-21T04:27:17.254Z,57.50
2018-11-21T04:27:50.685Z,57.40
2018-11-21T04:28:24.436Z,57.40
2018-11-21T04:28:59.396Z,57.50
2018-11-21T04:29:32.847Z,57.60
2018-11-21T04:30:08.825Z,57.50
2018-11-21T04:30:42.394Z,57.40
2018-11-21T04:31:16.414Z,57.50
2018-11-21T04:31:50.309Z,57.70
2018-11-21T04:32:23.889Z,57.60
2018-11-21T04:32:57.715Z,57.60
2018-11-21T04:33:31.462Z,57.80
2018-11-21T04:34:05.546Z,57.80
2018-11-21T04:34:39.809Z,58.00
2018-11-21T04:35:13.613Z,58.00
2018-11-21T04:35:47.523Z,57.90
2018-11-21T04:36:21.261Z,58.10
2018-11-21T04:36:55.516Z,57.90
2018-11-21T04:37:28.991Z,58.10
2018-11-21T04:38:03.146Z,58.20
2018-11-21T04:38:36.647Z,58.30
2018-11-21T04:39:11.987Z,58.30
2018-11-21T04:39:47.171Z,58.40
2018-11-21T04:40:20.926Z,58.30
2018-11-21T04:40:54.367Z,58.40
2018-11-21T04:41:27.820Z,58.20
2018-11-21T04:42:01.326Z,58.30
2018-11-21T04:42:35.186Z,58.30
2018-11-21T04:43:08.728Z,58.40
2018-11-21T04:43:42.558Z,58.30
2018-11-21T04:44:16.124Z,58.30
2018-11-21T04:44:50.737Z,58.30
2018-11-21T04:45:24.549Z,58.40
2018-11-21T04:45:58.034Z,58.30
2018-11-21T04:46:31.940Z,58.30
2018-11-21T04:47:06.709Z,58.30
2018-11-21T04:47:40.627Z,58.50
2018-11-21T04:48:14.127Z,58.50
2018-11-21T04:48:48.025Z,58.40
2018-11-21T04:49:22.026Z,58.30
2018-11-21T04:49:56.253Z,58.20
2018-11-21T04:50:32.546Z,58.30
2018-11-21T04:51:05.955Z,58.30
2018-11-21T04:51:40.557Z,58.20
2018-11-21T04:52:14.085Z,58.10
2018-11-21T04:52:48.322Z,58.20
2018-11-21T04:53:22.938Z,58.20
2018-11-21T04:53:57.628Z,58.40
2018-11-21T04:54:31.894Z,58.40
2018-11-21T04:55:06.771Z,58.50
2018-11-21T04:55:40.260Z,58.50
2018-11-21T04:56:14.186Z,58.50
2018-11-21T04:56:47.742Z,58.40
2018-11-21T04:57:21.691Z,58.50
2018-11-21T04:57:56.240Z,58.30
2018-11-21T04:58:30.079Z,58.70
2018-11-21T04:59:03.580Z,58.50
2018-11-21T04:59:37.891Z,58.70
2018-11-21T05:00:13.014Z,58.70
2018-11-21T05:00:47.431Z,58.80
2018-11-21T05:01:21.148Z,58.80
2018-11-21T05:01:54.918Z,58.90
2018-11-21T05:02:29.270Z,58.90
2018-11-21T05:03:05.524Z,58.90
2018-11-21T05:03:38.986Z,59.00
2018-11-21T05:04:14.614Z,58.90
2018-11-21T05:04:48.613Z,58.90
2018-11-21T05:05:23.798Z,59.10
2018-11-21T05:05:57.659Z,59.00
2018-11-21T05:06:31.916Z,59.00
2018-11-21T05:07:05.394Z,58.90
2018-11-21T05:07:40.163Z,58.90
2018-11-21T05:08:14.305Z,59.00
2018-11-21T05:08:48.707Z,59.00
2018-11-21T05:09:23.492Z,59.00
2018-11-21T05:09:56.927Z,58.90
2018-11-21T05:10:30.420Z,58.90
2018-11-21T05:11:04.501Z,58.80
2018-11-21T05:11:37.954Z,58.80
2018-11-21T05:12:12.080Z,58.80
2018-11-21T05:12:45.647Z,59.00
2018-11-21T05:13:19.078Z,59.30
2018-11-21T05:13:53.735Z,59.30
2018-11-21T05:14:27.939Z,59.30
2018-11-21T05:15:01.464Z,59.40
2018-11-21T05:15:35.460Z,59.50
2018-11-21T05:16:09.793Z,59.50
2018-11-21T05:16:43.401Z,59.40
2018-11-21T05:17:16.925Z,59.50
2018-11-21T05:17:51.097Z,59.50
2018-11-21T05:18:24.632Z,59.40
2018-11-21T05:19:00.023Z,59.40
2018-11-21T05:19:33.488Z,59.50
2018-11-21T05:20:07.380Z,59.50
2018-11-21T05:20:40.857Z,59.50
2018-11-21T05:21:14.797Z,59.50
2018-11-21T05:21:48.717Z,59.50
2018-11-21T05:22:22.512Z,59.60
2018-11-21T05:22:56.349Z,59.50
2018-11-21T05:23:30.141Z,59.60
2018-11-21T05:24:03.920Z,59.70
2018-11-21T05:24:38.389Z,59.70
2018-11-21T05:25:12.157Z,59.60
2018-11-21T05:25:45.898Z,59.70
2018-11-21T05:26:21.268Z,59.70
2018-11-21T05:26:54.689Z,59.80
2018-11-21T05:27:29.069Z,59.80
2018-11-21T05:28:02.660Z,59.90
2018-11-21T05:28:36.109Z,59.90
2018-11-21T05:29:10.350Z,59.80
2018-11-21T05:29:44.497Z,59.80
2018-11-21T05:30:18.057Z,59.90
2018-11-21T05:30:51.571Z,59.70
2018-11-21T05:31:25.955Z,59.70
2018-11-21T05:31:59.428Z,59.70
2018-11-21T05:32:33.966Z,59.80
2018-11-21T05:33:07.768Z,59.80
2018-11-21T05:33:41.589Z,59.80
2018-11-21T05:34:15.416Z,59.80
2018-11-21T05:34:48.836Z,59.90
2018-11-21T05:35:22.435Z,59.90
2018-11-21T05:35:56.738Z,59.70
2018-11-21T05:36:30.837Z,59.90
2018-11-21T05:37:05.066Z,59.90
2018-11-21T05:37:57.867Z,59.90
2018-11-21T05:38:31.671Z,60.20
2018-11-21T05:39:09.180Z,60.30
2018-11-21T05:39:42.636Z,60.20
2018-11-21T05:40:16.081Z,60.10
2018-11-21T05:40:50.505Z,60.10
2018-11-21T05:41:24.357Z,60.00
2018-11-21T05:41:58.265Z,59.90
2018-11-21T05:42:33.602Z,59.80
2018-11-21T05:43:07.359Z,59.80
2018-11-21T05:43:41.208Z,59.60
2018-11-21T05:44:15.132Z,59.60
2018-11-21T05:44:50.167Z,59.50
2018-11-21T05:45:24.143Z,59.60
2018-11-21T05:45:57.591Z,59.70
2018-11-21T05:46:31.735Z,59.80
2018-11-21T05:47:05.915Z,59.90
2018-11-21T05:47:40.240Z,60.30
2018-11-21T05:48:14.103Z,60.40
2018-11-21T05:48:47.715Z,60.50
2018-11-21T05:49:21.413Z,60.70
2018-11-21T05:49:55.407Z,60.90
2018-11-21T05:50:28.998Z,61.10
2018-11-21T05:51:03.456Z,61.20
2018-11-21T05:51:38.056Z,61.30
2018-11-21T05:52:12.012Z,61.50
2018-11-21T05:52:45.722Z,62.30
2018-11-21T05:53:19.848Z,61.40
2018-11-21T05:53:54.020Z,61.40
2018-11-21T05:54:27.944Z,61.40
2018-11-21T05:55:02.981Z,61.40
2018-11-21T05:55:38.812Z,61.40
2018-11-21T05:56:12.730Z,61.30
2018-11-21T05:56:46.953Z,61.30
2018-11-21T05:57:21.736Z,61.30
2018-11-21T05:57:55.255Z,61.40
2018-11-21T05:58:28.703Z,61.30
2018-11-21T05:59:03.426Z,61.30
2018-11-21T05:59:36.867Z,61.20
2018-11-21T06:00:12.219Z,61.20
2018-11-21T06:00:49.094Z,61.20
2018-11-21T06:01:20.477Z,61.20
2018-11-21T06:01:55.819Z,61.10
2018-11-21T06:02:29.268Z,61.00
2018-11-21T06:03:03.026Z,61.10
2018-11-21T06:03:37.207Z,61.20
2018-11-21T06:04:11.055Z,61.20
2018-11-21T06:04:44.858Z,60.60
2018-11-21T06:05:18.480Z,61.30
2018-11-21T06:05:52.932Z,61.30
2018-11-21T06:06:26.879Z,61.40
2018-11-21T06:07:00.526Z,61.30
2018-11-21T06:07:34.792Z,61.30
2018-11-21T06:08:08.646Z,61.30
2018-11-21T06:08:42.150Z,61.30
2018-11-21T06:09:15.722Z,61.30
2018-11-21T06:09:49.597Z,61.30
2018-11-21T06:10:23.649Z,61.30
2018-11-21T06:10:57.169Z,61.30
2018-11-21T06:11:31.590Z,61.50
2018-11-21T06:12:05.840Z,61.70
2018-11-21T06:12:40.369Z,61.60
2018-11-21T06:13:13.781Z,61.40
2018-11-21T06:13:47.839Z,61.50
2018-11-21T06:14:21.385Z,61.60
2018-11-21T06:14:55.180Z,61.70
2018-11-21T06:15:28.813Z,61.80
2018-11-21T06:16:03.071Z,61.90
2018-11-21T06:16:37.887Z,62.10
2018-11-21T06:17:12.721Z,61.90
2018-11-21T06:17:48.344Z,61.70
2018-11-21T06:18:19.941Z,61.60
2018-11-21T06:18:53.462Z,61.50
2018-11-21T06:19:27.745Z,61.60
2018-11-21T06:20:01.675Z,61.70
2018-11-21T06:20:35.082Z,61.60
2018-11-21T06:21:09.547Z,61.50
2018-11-21T06:21:43.980Z,61.90
2018-11-21T06:22:17.458Z,61.70
2018-11-21T06:22:51.079Z,61.60
2018-11-21T06:23:27.516Z,61.70
2018-11-21T06:24:02.153Z,62.00
2018-11-21T06:24:36.001Z,61.90
2018-11-21T06:25:10.380Z,62.70
2018-11-21T06:25:43.851Z,62.00
2018-11-21T06:26:17.699Z,61.90
2018-11-21T06:26:54.626Z,62.00
2018-11-21T06:27:28.059Z,61.90
2018-11-21T06:28:01.974Z,61.70
2018-11-21T06:28:35.508Z,61.80
2018-11-21T06:29:09.076Z,61.80
2018-11-21T06:29:43.447Z,61.70
2018-11-21T06:30:16.973Z,61.70
2018-11-21T06:30:50.821Z,61.60
2018-11-21T06:31:24.735Z,61.60
2018-11-21T06:31:58.444Z,61.70
2018-11-21T06:32:32.311Z,61.80
2018-11-21T06:33:07.033Z,61.90
2018-11-21T06:33:40.853Z,62.00
2018-11-21T06:34:14.451Z,62.00
2018-11-21T06:34:48.415Z,62.10
2018-11-21T06:35:22.325Z,62.20
2018-11-21T06:35:56.997Z,62.10
2018-11-21T06:36:30.811Z,62.10
2018-11-21T06:37:04.314Z,62.10
2018-11-21T06:37:39.339Z,62.10
2018-11-21T06:38:12.991Z,62.00
2018-11-21T06:38:47.694Z,61.70
2018-11-21T06:39:21.670Z,61.80
2018-11-21T06:39:55.140Z,61.70
2018-11-21T06:40:29.505Z,62.50
2018-11-21T06:41:03.198Z,61.70
2018-11-21T06:41:37.355Z,61.80
2018-11-21T06:42:11.091Z,62.00
2018-11-21T06:42:56.725Z,61.80
2018-11-21T06:43:30.162Z,61.80
2018-11-21T06:44:04.122Z,61.70
2018-11-21T06:44:37.697Z,61.60
2018-11-21T06:45:11.154Z,61.50
2018-11-21T06:45:44.783Z,61.50
2018-11-21T06:46:18.279Z,61.70
2018-11-21T06:46:52.605Z,61.50
2018-11-21T06:47:26.192Z,61.60
2018-11-21T06:47:59.933Z,61.50
2018-11-21T06:48:33.361Z,61.40
2018-11-21T06:49:08.882Z,61.40
2018-11-21T06:49:42.658Z,61.40
2018-11-21T06:50:16.135Z,61.40
2018-11-21T06:50:49.552Z,61.20
2018-11-21T06:51:23.776Z,61.00
2018-11-21T06:51:57.877Z,60.90
2018-11-21T06:52:32.755Z,60.90
2018-11-21T06:53:08.107Z,60.90
2018-11-21T06:53:41.603Z,60.80
2018-11-21T06:54:15.369Z,60.90
2018-11-21T06:54:49.187Z,60.90
2018-11-21T06:55:23.876Z,60.80
2018-11-21T06:55:57.325Z,60.80
2018-11-21T06:56:30.790Z,60.80
2018-11-21T06:57:04.600Z,60.80
2018-11-21T06:57:38.954Z,60.80
2018-11-21T06:58:12.710Z,60.70
2018-11-21T06:58:46.156Z,60.60
2018-11-21T06:59:19.697Z,60.60
2018-11-21T06:59:54.058Z,60.60
2018-11-21T07:00:28.464Z,60.60
2018-11-21T07:01:03.175Z,60.50
2018-11-21T07:01:37.509Z,60.40
2018-11-21T07:02:11.420Z,60.30
2018-11-21T07:02:46.867Z,60.30
2018-11-21T07:03:20.334Z,60.40
2018-11-21T07:03:53.809Z,60.30
2018-11-21T07:04:28.483Z,60.40
2018-11-21T07:05:02.736Z,60.40
2018-11-21T07:05:38.548Z,60.30
2018-11-21T07:06:12.342Z,60.30
2018-11-21T07:06:48.548Z,60.20
2018-11-21T07:07:21.984Z,60.20
2018-11-21T07:07:55.439Z,60.10
2018-11-21T07:08:29.325Z,60.10
2018-11-21T07:09:03.502Z,60.30
2018-11-21T07:09:37.898Z,60.10
2018-11-21T07:10:14.635Z,60.10
2018-11-21T07:10:48.821Z,60.20
2018-11-21T07:11:22.305Z,60.00
2018-11-21T07:11:56.074Z,60.10
2018-11-21T07:12:29.569Z,60.10
2018-11-21T07:13:03.030Z,60.10
2018-11-21T07:13:36.471Z,60.10
2018-11-21T07:14:10.677Z,60.00
2018-11-21T07:14:44.220Z,60.10
2018-11-21T07:15:18.837Z,60.00
2018-11-21T07:15:53.228Z,60.00
2018-11-21T07:16:28.423Z,60.00
2018-11-21T07:17:01.900Z,60.00
2018-11-21T07:17:36.676Z,60.00
2018-11-21T07:18:11.934Z,60.00
2018-11-21T07:18:47.369Z,59.90
2018-11-21T07:19:20.805Z,59.90
2018-11-21T07:19:54.621Z,60.00